sensor_id;sensor_type;location;lat;lon;timestamp;pressure;altitude;pressure_sealevel;temperature;humidity
79236;BME280;68958;47.460;18.812;2023-04-03T00:00:47;100165.25;;;22.83;50.88
79236;BME280;68958;47.460;18.812;2023-04-03T00:01:50;100165.25;;;22.83;50.97
79236;BME280;68958;47.460;18.812;2023-04-03T00:02:51;100163.56;;;22.82;50.87
79236;BME280;68958;47.460;18.812;2023-04-03T00:03:53;100156.34;;;22.83;50.86
79236;BME280;68958;47.460;18.812;2023-04-03T00:04:55;100161.00;;;22.81;51.05
79236;BME280;68958;47.460;18.812;2023-04-03T00:05:57;100163.69;;;22.81;50.94
79236;BME280;68958;47.460;18.812;2023-04-03T00:06:58;100167.28;;;22.81;50.88
79236;BME280;68958;47.460;18.812;2023-04-03T00:08:00;100169.09;;;22.81;51.01
79236;BME280;68958;47.460;18.812;2023-04-03T00:09:03;100171.94;;;22.79;51.10
79236;BME280;68958;47.460;18.812;2023-04-03T00:10:04;100167.41;;;22.80;50.78
79236;BME280;68958;47.460;18.812;2023-04-03T00:11:06;100169.09;;;22.81;51.10
79236;BME280;68958;47.460;18.812;2023-04-03T00:12:08;100172.09;;;22.78;50.97
79236;BME280;68958;47.460;18.812;2023-04-03T00:13:10;100165.72;;;22.79;50.91
79236;BME280;68958;47.460;18.812;2023-04-03T00:14:11;100172.09;;;22.78;51.21
79236;BME280;68958;47.460;18.812;2023-04-03T00:15:13;100173.78;;;22.79;51.18
79236;BME280;68958;47.460;18.812;2023-04-03T00:16:14;100170.25;;;22.78;50.95
79236;BME280;68958;47.460;18.812;2023-04-03T00:17:16;100173.09;;;22.77;51.25
79236;BME280;68958;47.460;18.812;2023-04-03T00:18:17;100170.41;;;22.77;50.88
79236;BME280;68958;47.460;18.812;2023-04-03T00:19:19;100181.88;;;22.79;50.66
79236;BME280;68958;47.460;18.812;2023-04-03T00:20:20;100177.47;;;22.78;50.95
79236;BME280;68958;47.460;18.812;2023-04-03T00:21:22;100176.81;;;22.76;51.03
79236;BME280;68958;47.460;18.812;2023-04-03T00:22:23;100184.72;;;22.77;50.82
79236;BME280;68958;47.460;18.812;2023-04-03T00:23:25;100183.03;;;22.76;50.97
79236;BME280;68958;47.460;18.812;2023-04-03T00:24:26;100185.72;;;22.76;51.05
79236;BME280;68958;47.460;18.812;2023-04-03T00:25:27;100184.03;;;22.75;51.30
79236;BME280;68958;47.460;18.812;2023-04-03T00:26:29;100188.56;;;22.75;50.88
79236;BME280;68958;47.460;18.812;2023-04-03T00:27:30;100193.81;;;22.76;50.83
79236;BME280;68958;47.460;18.812;2023-04-03T00:28:32;100183.19;;;22.75;51.12
79236;BME280;68958;47.460;18.812;2023-04-03T00:29:33;100188.72;;;22.73;51.26
79236;BME280;68958;47.460;18.812;2023-04-03T00:30:35;100190.56;;;22.73;51.02
79236;BME280;68958;47.460;18.812;2023-04-03T00:31:37;100187.03;;;22.72;50.92
79236;BME280;68958;47.460;18.812;2023-04-03T00:32:38;100195.94;;;22.73;51.02
79236;BME280;68958;47.460;18.812;2023-04-03T00:33:40;100189.72;;;22.72;51.14
79236;BME280;68958;47.460;18.812;2023-04-03T00:34:41;100188.88;;;22.72;51.11
79236;BME280;68958;47.460;18.812;2023-04-03T00:35:43;100192.56;;;22.71;51.26
79236;BME280;68958;47.460;18.812;2023-04-03T00:36:44;100185.31;;;22.71;51.15
79236;BME280;68958;47.460;18.812;2023-04-03T00:37:46;100185.50;;;22.70;51.28
79236;BME280;68958;47.460;18.812;2023-04-03T00:38:47;100186.34;;;22.70;51.00
79236;BME280;68958;47.460;18.812;2023-04-03T00:39:49;100190.03;;;22.69;51.06
79236;BME280;68958;47.460;18.812;2023-04-03T00:40:50;100190.88;;;22.70;51.31
79236;BME280;68958;47.460;18.812;2023-04-03T00:41:52;100185.50;;;22.70;51.02
79236;BME280;68958;47.460;18.812;2023-04-03T00:42:58;100188.03;;;22.71;51.08
79236;BME280;68958;47.460;18.812;2023-04-03T00:44:00;100183.63;;;22.70;50.59
79236;BME280;68958;47.460;18.812;2023-04-03T00:46:03;100186.50;;;22.69;51.03
79236;BME280;68958;47.460;18.812;2023-04-03T00:47:07;100184.81;;;22.68;50.96
79236;BME280;68958;47.460;18.812;2023-04-03T00:48:17;100188.34;;;22.68;50.90
79236;BME280;68958;47.460;18.812;2023-04-03T00:49:20;100188.47;;;22.67;51.22
79236;BME280;68958;47.460;18.812;2023-04-03T00:50:22;100186.66;;;22.67;51.09
79236;BME280;68958;47.460;18.812;2023-04-03T00:51:26;100187.63;;;22.66;51.20
79236;BME280;68958;47.460;18.812;2023-04-03T00:52:30;100195.69;;;22.66;51.28
79236;BME280;68958;47.460;18.812;2023-04-03T00:53:37;100199.41;;;22.65;51.32
79236;BME280;68958;47.460;18.812;2023-04-03T00:54:41;100192.16;;;22.66;51.25
79236;BME280;68958;47.460;18.812;2023-04-03T00:55:44;100195.69;;;22.66;50.92
79236;BME280;68958;47.460;18.812;2023-04-03T00:56:46;100195.88;;;22.65;50.88
79236;BME280;68958;47.460;18.812;2023-04-03T00:57:49;100195.03;;;22.64;50.81
79236;BME280;68958;47.460;18.812;2023-04-03T00:58:51;100195.88;;;22.65;51.30
79236;BME280;68958;47.460;18.812;2023-04-03T01:00:01;100196.03;;;22.63;51.08
79236;BME280;68958;47.460;18.812;2023-04-03T01:01:08;100200.41;;;22.64;51.23
79236;BME280;68958;47.460;18.812;2023-04-03T01:02:11;100194.19;;;22.64;50.80
79236;BME280;68958;47.460;18.812;2023-04-03T01:03:13;100201.41;;;22.63;51.08
79236;BME280;68958;47.460;18.812;2023-04-03T01:04:37;100195.19;;;22.63;51.15
79236;BME280;68958;47.460;18.812;2023-04-03T01:05:40;100200.56;;;22.63;50.87
79236;BME280;68958;47.460;18.812;2023-04-03T01:06:41;100197.88;;;22.63;51.25
79236;BME280;68958;47.460;18.812;2023-04-03T01:07:43;100193.50;;;22.62;50.97
79236;BME280;68958;47.460;18.812;2023-04-03T01:08:48;100198.88;;;22.62;50.99
79236;BME280;68958;47.460;18.812;2023-04-03T01:09:53;100205.09;;;22.62;50.66
79236;BME280;68958;47.460;18.812;2023-04-03T01:10:57;100203.25;;;22.63;50.89
79236;BME280;68958;47.460;18.812;2023-04-03T01:12:21;100202.56;;;22.61;51.39
79236;BME280;68958;47.460;18.812;2023-04-03T01:13:29;100200.84;;;22.60;51.00
79236;BME280;68958;47.460;18.812;2023-04-03T01:14:31;100200.84;;;22.60;51.34
79236;BME280;68958;47.460;18.812;2023-04-03T01:15:33;100199.03;;;22.60;51.04
79236;BME280;68958;47.460;18.812;2023-04-03T01:16:36;100195.47;;;22.60;51.19
79236;BME280;68958;47.460;18.812;2023-04-03T01:18:41;100202.84;;;22.57;50.81
79236;BME280;68958;47.460;18.812;2023-04-03T01:19:49;100200.16;;;22.57;51.10
79236;BME280;68958;47.460;18.812;2023-04-03T01:22:23;100198.47;;;22.56;51.09
79236;BME280;68958;47.460;18.812;2023-04-03T01:24:52;100198.47;;;22.56;51.09
79236;BME280;68958;47.460;18.812;2023-04-03T01:25:56;100195.09;;;22.54;50.88
79236;BME280;68958;47.460;18.812;2023-04-03T01:26:58;100196.94;;;22.54;50.87
79236;BME280;68958;47.460;18.812;2023-04-03T01:28:00;100202.34;;;22.54;50.98
79236;BME280;68958;47.460;18.812;2023-04-03T01:29:03;100195.09;;;22.54;50.88
79236;BME280;68958;47.460;18.812;2023-04-03T01:30:05;100203.16;;;22.54;50.98
79236;BME280;68958;47.460;18.812;2023-04-03T01:32:21;100198.06;;;22.51;51.11
79236;BME280;68958;47.460;18.812;2023-04-03T01:33:23;100198.06;;;22.51;50.98
79236;BME280;68958;47.460;18.812;2023-04-03T01:34:24;100196.22;;;22.52;51.10
79236;BME280;68958;47.460;18.812;2023-04-03T01:35:26;100198.91;;;22.52;51.05
79236;BME280;68958;47.460;18.812;2023-04-03T01:36:30;100192.69;;;22.51;51.17
79236;BME280;68958;47.460;18.812;2023-04-03T01:37:32;100198.06;;;22.51;51.25
79236;BME280;68958;47.460;18.812;2023-04-03T01:38:34;100199.91;;;22.51;51.22
79236;BME280;68958;47.460;18.812;2023-04-03T01:39:35;100198.06;;;22.51;51.00
79236;BME280;68958;47.460;18.812;2023-04-03T01:40:37;100198.22;;;22.50;50.91
79236;BME280;68958;47.460;18.812;2023-04-03T01:41:38;100194.53;;;22.51;50.99
79236;BME280;68958;47.460;18.812;2023-04-03T01:42:48;100201.78;;;22.50;50.89
79236;BME280;68958;47.460;18.812;2023-04-03T01:43:49;100198.22;;;22.50;50.95
79236;BME280;68958;47.460;18.812;2023-04-03T01:44:51;100199.06;;;22.50;51.13
79236;BME280;68958;47.460;18.812;2023-04-03T01:45:52;100200.94;;;22.50;50.78
79236;BME280;68958;47.460;18.812;2023-04-03T01:46:55;100200.94;;;22.50;51.07
79236;BME280;68958;47.460;18.812;2023-04-03T01:47:58;100208.31;;;22.48;51.17
79236;BME280;68958;47.460;18.812;2023-04-03T01:49:01;100200.09;;;22.49;50.99
79236;BME280;68958;47.460;18.812;2023-04-03T01:50:03;100206.63;;;22.47;51.17
79236;BME280;68958;47.460;18.812;2023-04-03T01:51:07;100195.84;;;22.47;51.10
79236;BME280;68958;47.460;18.812;2023-04-03T01:52:08;100204.94;;;22.46;51.04
79236;BME280;68958;47.460;18.812;2023-04-03T01:53:10;100207.63;;;22.46;50.97
79236;BME280;68958;47.460;18.812;2023-04-03T01:54:11;100210.31;;;22.46;50.85
79236;BME280;68958;47.460;18.812;2023-04-03T01:55:13;100212.84;;;22.47;51.11
79236;BME280;68958;47.460;18.812;2023-04-03T01:56:14;100206.78;;;22.45;51.26
79236;BME280;68958;47.460;18.812;2023-04-03T01:57:16;100210.31;;;22.46;51.35
79236;BME280;68958;47.460;18.812;2023-04-03T01:58:20;100217.41;;;22.47;50.80
79236;BME280;68958;47.460;18.812;2023-04-03T01:59:23;100209.47;;;22.45;51.25
79236;BME280;68958;47.460;18.812;2023-04-03T02:00:25;100214.84;;;22.45;51.27
79236;BME280;68958;47.460;18.812;2023-04-03T02:01:27;100213.13;;;22.44;51.25
79236;BME280;68958;47.460;18.812;2023-04-03T02:02:29;100216.53;;;22.46;50.75
79236;BME280;68958;47.460;18.812;2023-04-03T02:03:30;100221.94;;;22.46;51.28
79236;BME280;68958;47.460;18.812;2023-04-03T02:04:32;100215.69;;;22.46;51.31
79236;BME280;68958;47.460;18.812;2023-04-03T02:05:34;100220.25;;;22.45;51.17
79236;BME280;68958;47.460;18.812;2023-04-03T02:06:36;100211.44;;;22.43;50.87
79236;BME280;68958;47.460;18.812;2023-04-03T02:07:37;100222.22;;;22.43;51.24
79236;BME280;68958;47.460;18.812;2023-04-03T02:08:39;100214.13;;;22.43;51.09
79236;BME280;68958;47.460;18.812;2023-04-03T02:09:41;100217.69;;;22.44;50.96
79236;BME280;68958;47.460;18.812;2023-04-03T02:10:48;100219.53;;;22.43;51.23
79236;BME280;68958;47.460;18.812;2023-04-03T02:11:50;100215.16;;;22.42;50.85
79236;BME280;68958;47.460;18.812;2023-04-03T02:12:52;100214.13;;;22.43;50.92
79236;BME280;68958;47.460;18.812;2023-04-03T02:13:54;100218.69;;;22.43;50.76
79236;BME280;68958;47.460;18.812;2023-04-03T02:14:55;100216.16;;;22.41;50.93
79236;BME280;68958;47.460;18.812;2023-04-03T02:15:56;100218.00;;;22.41;51.03
79236;BME280;68958;47.460;18.812;2023-04-03T02:17:00;100217.84;;;22.42;50.71
79236;BME280;68958;47.460;18.812;2023-04-03T02:18:01;100210.75;;;22.41;50.92
79236;BME280;68958;47.460;18.812;2023-04-03T02:19:03;100220.53;;;22.42;51.11
79236;BME280;68958;47.460;18.812;2023-04-03T02:20:05;100220.69;;;22.41;50.70
79236;BME280;68958;47.460;18.812;2023-04-03T02:21:08;100215.16;;;22.42;50.86
79236;BME280;68958;47.460;18.812;2023-04-03T02:22:09;100219.69;;;22.42;51.04
79236;BME280;68958;47.460;18.812;2023-04-03T02:23:11;100213.44;;;22.41;50.86
79236;BME280;68958;47.460;18.812;2023-04-03T02:24:12;100208.06;;;22.41;50.81
79236;BME280;68958;47.460;18.812;2023-04-03T02:25:14;100211.75;;;22.40;51.24
79236;BME280;68958;47.460;18.812;2023-04-03T02:26:16;100221.53;;;22.41;50.94
79236;BME280;68958;47.460;18.812;2023-04-03T02:27:20;100223.22;;;22.42;50.88
79236;BME280;68958;47.460;18.812;2023-04-03T02:28:23;100220.84;;;22.39;50.96
79236;BME280;68958;47.460;18.812;2023-04-03T02:29:24;100225.22;;;22.40;50.89
79236;BME280;68958;47.460;18.812;2023-04-03T02:30:26;100219.00;;;22.40;51.09
79236;BME280;68958;47.460;18.812;2023-04-03T02:31:28;100222.53;;;22.40;51.16
79236;BME280;68958;47.460;18.812;2023-04-03T02:32:30;100220.84;;;22.39;51.15
79236;BME280;68958;47.460;18.812;2023-04-03T02:33:32;100224.53;;;22.38;51.29
79236;BME280;68958;47.460;18.812;2023-04-03T02:34:34;100227.22;;;22.38;50.99
79236;BME280;68958;47.460;18.812;2023-04-03T02:35:36;100220.13;;;22.37;50.92
79236;BME280;68958;47.460;18.812;2023-04-03T02:36:39;100217.44;;;22.37;50.95
79236;BME280;68958;47.460;18.812;2023-04-03T02:37:43;100226.34;;;22.38;51.11
79236;BME280;68958;47.460;18.812;2023-04-03T02:38:45;100227.34;;;22.37;51.42
79236;BME280;68958;47.460;18.812;2023-04-03T02:39:46;100224.66;;;22.37;50.94
79236;BME280;68958;47.460;18.812;2023-04-03T02:40:48;100220.97;;;22.38;51.15
79236;BME280;68958;47.460;18.812;2023-04-03T02:41:49;100222.81;;;22.37;50.99
79236;BME280;68958;47.460;18.812;2023-04-03T02:42:57;100216.59;;;22.37;51.49
79236;BME280;68958;47.460;18.812;2023-04-03T02:44:00;100224.66;;;22.37;51.26
79236;BME280;68958;47.460;18.812;2023-04-03T02:45:01;100226.50;;;22.36;51.41
79236;BME280;68958;47.460;18.812;2023-04-03T02:46:03;100232.88;;;22.35;51.40
79236;BME280;68958;47.460;18.812;2023-04-03T02:47:06;100228.50;;;22.34;51.23
79236;BME280;68958;47.460;18.812;2023-04-03T02:48:08;100225.66;;;22.36;51.36
79236;BME280;68958;47.460;18.812;2023-04-03T02:49:10;100221.13;;;22.36;51.21
79236;BME280;68958;47.460;18.812;2023-04-03T02:50:11;100224.81;;;22.35;51.14
79236;BME280;68958;47.460;18.812;2023-04-03T02:51:13;100228.34;;;22.36;50.60
79236;BME280;68958;47.460;18.812;2023-04-03T02:52:15;100226.50;;;22.36;51.20
79236;BME280;68958;47.460;18.812;2023-04-03T02:53:16;100222.13;;;22.35;50.96
79236;BME280;68958;47.460;18.812;2023-04-03T02:54:18;100223.81;;;22.36;51.18
79236;BME280;68958;47.460;18.812;2023-04-03T02:55:24;100215.91;;;22.35;51.38
79236;BME280;68958;47.460;18.812;2023-04-03T02:56:28;100218.75;;;22.33;51.25
79236;BME280;68958;47.460;18.812;2023-04-03T02:57:29;100226.13;;;22.31;51.61
79236;BME280;68958;47.460;18.812;2023-04-03T02:58:30;100209.97;;;22.31;51.42
79236;BME280;68958;47.460;18.812;2023-04-03T02:59:37;100212.50;;;22.33;51.05
79236;BME280;68958;47.460;18.812;2023-04-03T03:00:43;100222.44;;;22.32;51.02
79236;BME280;68958;47.460;18.812;2023-04-03T03:01:44;100220.59;;;22.33;51.24
79236;BME280;68958;47.460;18.812;2023-04-03T03:02:45;100210.81;;;22.32;51.11
79236;BME280;68958;47.460;18.812;2023-04-03T03:03:47;100217.06;;;22.32;51.37
79236;BME280;68958;47.460;18.812;2023-04-03T03:04:48;100213.34;;;22.33;50.96
79236;BME280;68958;47.460;18.812;2023-04-03T03:05:50;100213.34;;;22.33;51.28
79236;BME280;68958;47.460;18.812;2023-04-03T03:07:01;100221.44;;;22.33;51.21
79236;BME280;68958;47.460;18.812;2023-04-03T03:08:03;100225.97;;;22.33;51.58
79236;BME280;68958;47.460;18.812;2023-04-03T03:09:04;100219.75;;;22.32;51.11
79236;BME280;68958;47.460;18.812;2023-04-03T03:10:07;100214.47;;;22.30;51.56
79236;BME280;68958;47.460;18.812;2023-04-03T03:11:10;100221.59;;;22.32;51.48
79236;BME280;68958;47.460;18.812;2023-04-03T03:12:12;100220.88;;;22.29;51.62
79236;BME280;68958;47.460;18.812;2023-04-03T03:13:13;100218.91;;;22.32;51.03
79236;BME280;68958;47.460;18.812;2023-04-03T03:14:14;100224.28;;;22.32;51.02
79236;BME280;68958;47.460;18.812;2023-04-03T03:15:16;100227.09;;;22.30;51.54
79236;BME280;68958;47.460;18.812;2023-04-03T03:16:18;100225.25;;;22.30;50.98
79236;BME280;68958;47.460;18.812;2023-04-03T03:17:20;100220.03;;;22.29;51.66
79236;BME280;68958;47.460;18.812;2023-04-03T03:18:22;100221.72;;;22.30;51.25
79236;BME280;68958;47.460;18.812;2023-04-03T03:19:23;100226.25;;;22.29;51.62
79236;BME280;68958;47.460;18.812;2023-04-03T03:20:27;100220.19;;;22.27;51.09
79236;BME280;68958;47.460;18.812;2023-04-03T03:21:28;100222.88;;;22.27;51.11
79236;BME280;68958;47.460;18.812;2023-04-03T03:22:30;100226.41;;;22.28;51.48
79236;BME280;68958;47.460;18.812;2023-04-03T03:23:32;100221.88;;;22.28;51.29
79236;BME280;68958;47.460;18.812;2023-04-03T03:24:33;100220.19;;;22.27;51.07
79236;BME280;68958;47.460;18.812;2023-04-03T03:25:39;100226.56;;;22.26;51.33
79236;BME280;68958;47.460;18.812;2023-04-03T03:26:43;100220.34;;;22.26;51.45
79236;BME280;68958;47.460;18.812;2023-04-03T03:27:44;100223.19;;;22.24;51.21
79236;BME280;68958;47.460;18.812;2023-04-03T03:28:46;100219.50;;;22.25;51.46
79236;BME280;68958;47.460;18.812;2023-04-03T03:29:48;100214.41;;;22.22;51.58
79236;BME280;68958;47.460;18.812;2023-04-03T03:30:49;100224.16;;;22.23;51.29
79236;BME280;68958;47.460;18.812;2023-04-03T03:31:52;100220.50;;;22.24;51.39
79236;BME280;68958;47.460;18.812;2023-04-03T03:32:53;100226.84;;;22.23;51.11
79236;BME280;68958;47.460;18.812;2023-04-03T03:33:55;100218.78;;;22.23;51.21
79236;BME280;68958;47.460;18.812;2023-04-03T03:34:57;100217.94;;;22.23;51.58
79236;BME280;68958;47.460;18.812;2023-04-03T03:35:59;100225.03;;;22.24;51.37
79236;BME280;68958;47.460;18.812;2023-04-03T03:37:01;100216.97;;;22.24;51.21
79236;BME280;68958;47.460;18.812;2023-04-03T03:38:03;100219.66;;;22.24;51.09
79236;BME280;68958;47.460;18.812;2023-04-03T03:39:05;100224.31;;;22.22;51.29
79236;BME280;68958;47.460;18.812;2023-04-03T03:40:07;100224.16;;;22.23;51.19
79236;BME280;68958;47.460;18.812;2023-04-03T03:41:09;100222.47;;;22.22;50.91
79236;BME280;68958;47.460;18.812;2023-04-03T03:42:10;100220.63;;;22.23;51.15
79236;BME280;68958;47.460;18.812;2023-04-03T03:43:12;100225.31;;;22.21;51.17
79236;BME280;68958;47.460;18.812;2023-04-03T03:44:14;100225.31;;;22.21;51.07
79236;BME280;68958;47.460;18.812;2023-04-03T03:45:15;100228.00;;;22.21;51.06
79236;BME280;68958;47.460;18.812;2023-04-03T03:46:17;100222.63;;;22.21;51.04
79236;BME280;68958;47.460;18.812;2023-04-03T03:47:18;100232.38;;;22.22;51.13
79236;BME280;68958;47.460;18.812;2023-04-03T03:48:21;100219.09;;;22.20;51.14
79236;BME280;68958;47.460;18.812;2023-04-03T03:49:22;100221.78;;;22.20;51.09
79236;BME280;68958;47.460;18.812;2023-04-03T03:50:24;100222.63;;;22.21;51.34
79236;BME280;68958;47.460;18.812;2023-04-03T03:51:26;100218.25;;;22.20;51.41
79236;BME280;68958;47.460;18.812;2023-04-03T03:52:27;100225.47;;;22.19;51.23
79236;BME280;68958;47.460;18.812;2023-04-03T03:53:29;100217.41;;;22.19;51.18
79236;BME280;68958;47.460;18.812;2023-04-03T03:54:34;100220.09;;;22.19;51.28
79236;BME280;68958;47.460;18.812;2023-04-03T03:55:36;100222.78;;;22.19;51.31
79236;BME280;68958;47.460;18.812;2023-04-03T03:56:37;100221.94;;;22.19;50.91
79236;BME280;68958;47.460;18.812;2023-04-03T03:57:39;100215.72;;;22.18;51.34
79236;BME280;68958;47.460;18.812;2023-04-03T03:58:40;100220.25;;;22.18;50.91
79236;BME280;68958;47.460;18.812;2023-04-03T03:59:43;100221.25;;;22.17;51.34
79236;BME280;68958;47.460;18.812;2023-04-03T04:00:45;100222.09;;;22.17;51.04
79236;BME280;68958;47.460;18.812;2023-04-03T04:01:47;100225.78;;;22.16;51.68
79236;BME280;68958;47.460;18.812;2023-04-03T04:02:48;100225.06;;;22.14;51.39
79236;BME280;68958;47.460;18.812;2023-04-03T04:03:53;100230.28;;;22.16;51.46
79236;BME280;68958;47.460;18.812;2023-04-03T04:04:59;100226.63;;;22.17;51.00
79236;BME280;68958;47.460;18.812;2023-04-03T04:06:01;100223.94;;;22.17;51.06
79236;BME280;68958;47.460;18.812;2023-04-03T04:07:02;100223.22;;;22.15;51.61
79236;BME280;68958;47.460;18.812;2023-04-03T04:08:05;100228.59;;;22.15;51.49
79236;BME280;68958;47.460;18.812;2023-04-03T04:09:08;100227.75;;;22.14;51.08
79236;BME280;68958;47.460;18.812;2023-04-03T04:10:10;100224.22;;;22.14;51.66
79236;BME280;68958;47.460;18.812;2023-04-03T04:11:12;100221.53;;;22.14;51.11
79236;BME280;68958;47.460;18.812;2023-04-03T04:12:15;100217.97;;;22.13;51.05
79236;BME280;68958;47.460;18.812;2023-04-03T04:13:17;100230.59;;;22.13;51.20
79236;BME280;68958;47.460;18.812;2023-04-03T04:14:19;100219.84;;;22.13;51.16
79236;BME280;68958;47.460;18.812;2023-04-03T04:15:22;100226.22;;;22.12;51.67
79236;BME280;68958;47.460;18.812;2023-04-03T04:16:24;100224.38;;;22.12;51.58
79236;BME280;68958;47.460;18.812;2023-04-03T04:17:26;100220.84;;;22.12;51.12
79236;BME280;68958;47.460;18.812;2023-04-03T04:18:27;100223.53;;;22.12;51.55
79236;BME280;68958;47.460;18.812;2023-04-03T04:19:28;100222.69;;;22.11;51.57
79236;BME280;68958;47.460;18.812;2023-04-03T04:20:30;100233.44;;;22.11;51.44
79236;BME280;68958;47.460;18.812;2023-04-03T04:21:31;100224.53;;;22.11;51.51
79236;BME280;68958;47.460;18.812;2023-04-03T04:22:33;100237.13;;;22.10;51.34
79236;BME280;68958;47.460;18.812;2023-04-03T04:23:35;100240.66;;;22.11;51.22
79236;BME280;68958;47.460;18.812;2023-04-03T04:24:36;100234.44;;;22.10;51.49
79236;BME280;68958;47.460;18.812;2023-04-03T04:25:37;100238.81;;;22.11;51.23
79236;BME280;68958;47.460;18.812;2023-04-03T04:26:40;100243.50;;;22.09;51.34
79236;BME280;68958;47.460;18.812;2023-04-03T04:27:44;100238.97;;;22.10;51.78
79236;BME280;68958;47.460;18.812;2023-04-03T04:28:48;100245.44;;;22.07;51.30
79236;BME280;68958;47.460;18.812;2023-04-03T04:29:52;100248.13;;;22.07;51.83
79236;BME280;68958;47.460;18.812;2023-04-03T04:30:55;100245.31;;;22.09;51.18
79236;BME280;68958;47.460;18.812;2023-04-03T04:31:59;100246.28;;;22.08;51.70
79236;BME280;68958;47.460;18.812;2023-04-03T04:33:01;100243.50;;;22.09;51.18
79236;BME280;68958;47.460;18.812;2023-04-03T04:34:03;100248.88;;;22.09;51.12
79236;BME280;68958;47.460;18.812;2023-04-03T04:35:04;100248.00;;;22.09;51.46
79236;BME280;68958;47.460;18.812;2023-04-03T04:36:08;100243.59;;;22.08;51.16
79236;BME280;68958;47.460;18.812;2023-04-03T04:37:10;100248.97;;;22.08;51.64
79236;BME280;68958;47.460;18.812;2023-04-03T04:38:11;100245.44;;;22.07;51.08
79236;BME280;68958;47.460;18.812;2023-04-03T04:39:13;100242.91;;;22.06;51.70
79236;BME280;68958;47.460;18.812;2023-04-03T04:40:15;100250.97;;;22.06;51.33
79236;BME280;68958;47.460;18.812;2023-04-03T04:41:17;100245.59;;;22.06;51.78
79236;BME280;68958;47.460;18.812;2023-04-03T04:42:19;100248.28;;;22.06;51.53
79236;BME280;68958;47.460;18.812;2023-04-03T04:43:23;100244.91;;;22.03;51.77
79236;BME280;68958;47.460;18.812;2023-04-03T04:44:27;100246.59;;;22.05;51.63
79236;BME280;68958;47.460;18.812;2023-04-03T04:45:28;100242.06;;;22.05;51.73
79236;BME280;68958;47.460;18.812;2023-04-03T04:46:30;100246.59;;;22.05;51.19
79236;BME280;68958;47.460;18.812;2023-04-03T04:47:34;100242.22;;;22.03;51.44
79236;BME280;68958;47.460;18.812;2023-04-03T04:48:35;100246.75;;;22.03;51.75
79236;BME280;68958;47.460;18.812;2023-04-03T04:49:37;100242.22;;;22.03;51.41
79236;BME280;68958;47.460;18.812;2023-04-03T04:50:39;100246.75;;;22.03;51.93
79236;BME280;68958;47.460;18.812;2023-04-03T04:51:40;100244.06;;;22.03;51.94
79236;BME280;68958;47.460;18.812;2023-04-03T04:52:42;100245.91;;;22.02;51.30
79236;BME280;68958;47.460;18.812;2023-04-03T04:53:43;100240.66;;;22.01;51.77
79236;BME280;68958;47.460;18.812;2023-04-03T04:54:48;100253.13;;;22.02;51.65
79236;BME280;68958;47.460;18.812;2023-04-03T04:55:49;100250.44;;;22.02;51.46
79236;BME280;68958;47.460;18.812;2023-04-03T04:56:51;100251.41;;;22.01;51.77
79236;BME280;68958;47.460;18.812;2023-04-03T04:57:52;100248.72;;;22.01;51.92
79236;BME280;68958;47.460;18.812;2023-04-03T04:58:55;100249.72;;;22.00;51.95
79236;BME280;68958;47.460;18.812;2023-04-03T04:59:58;100254.25;;;21.99;52.00
79236;BME280;68958;47.460;18.812;2023-04-03T05:02:02;100259.63;;;21.99;51.22
79236;BME280;68958;47.460;18.812;2023-04-03T05:03:03;100255.25;;;21.98;51.95
79236;BME280;68958;47.460;18.812;2023-04-03T05:04:05;100254.41;;;21.98;52.17
79236;BME280;68958;47.460;18.812;2023-04-03T05:05:07;100253.56;;;21.97;52.08
79236;BME280;68958;47.460;18.812;2023-04-03T05:06:09;100259.94;;;21.96;51.92
79236;BME280;68958;47.460;18.812;2023-04-03T05:07:12;100260.63;;;21.98;51.72
79236;BME280;68958;47.460;18.812;2023-04-03T05:08:13;100257.25;;;21.96;51.79
79236;BME280;68958;47.460;18.812;2023-04-03T05:09:16;100255.41;;;21.97;51.73
79236;BME280;68958;47.460;18.812;2023-04-03T05:10:19;100259.94;;;21.96;51.86
79236;BME280;68958;47.460;18.812;2023-04-03T05:11:21;100252.03;;;21.95;51.30
79236;BME280;68958;47.460;18.812;2023-04-03T05:12:25;100263.63;;;21.95;51.73
79236;BME280;68958;47.460;18.812;2023-04-03T05:13:31;100262.78;;;21.95;51.27
79236;BME280;68958;47.460;18.812;2023-04-03T05:14:32;100261.91;;;21.94;51.89
79236;BME280;68958;47.460;18.812;2023-04-03T05:15:38;100268.00;;;21.96;52.11
79236;BME280;68958;47.460;18.812;2023-04-03T05:16:40;100256.53;;;21.94;51.89
79236;BME280;68958;47.460;18.812;2023-04-03T05:17:42;100257.53;;;21.93;51.72
79236;BME280;68958;47.460;18.812;2023-04-03T05:18:46;100265.59;;;21.93;51.96
79236;BME280;68958;47.460;18.812;2023-04-03T05:19:53;100268.16;;;21.95;52.42
79236;BME280;68958;47.460;18.812;2023-04-03T05:20:56;100269.97;;;21.94;51.85
79236;BME280;68958;47.460;18.812;2023-04-03T05:22:00;100270.97;;;21.93;51.68
79236;BME280;68958;47.460;18.812;2023-04-03T05:23:03;100271.81;;;21.94;51.81
79236;BME280;68958;47.460;18.812;2023-04-03T05:24:06;100270.97;;;21.93;52.16
79236;BME280;68958;47.460;18.812;2023-04-03T05:25:13;100268.28;;;21.93;51.78
79236;BME280;68958;47.460;18.812;2023-04-03T05:26:17;100278.19;;;21.93;51.84
79236;BME280;68958;47.460;18.812;2023-04-03T05:27:21;100269.44;;;21.91;53.29
79236;BME280;68958;47.460;18.812;2023-04-03T05:28:27;100272.97;;;21.91;52.78
79236;BME280;68958;47.460;18.812;2023-04-03T05:29:29;100274.97;;;21.89;52.66
79236;BME280;68958;47.460;18.812;2023-04-03T05:30:32;100280.19;;;21.91;52.91